sensor_id;sensor_type;location;lat;lon;timestamp;temperature;humidity
28608;DHT22;15802;45.654;13.804;2023-04-03T00:00:18;13.00;99.90
28608;DHT22;15802;45.654;13.804;2023-04-03T00:02:44;12.90;99.90
28608;DHT22;15802;45.654;13.804;2023-04-03T00:05:10;12.90;99.90
28608;DHT22;15802;45.654;13.804;2023-04-03T00:07:35;12.80;99.90
28608;DHT22;15802;45.654;13.804;2023-04-03T00:10:01;12.80;99.90
28608;DHT22;15802;45.654;13.804;2023-04-03T00:12:27;12.80;99.90
28608;DHT22;15802;45.654;13.804;2023-04-03T00:14:52;12.80;99.90
28608;DHT22;15802;45.654;13.804;2023-04-03T00:17:18;12.90;99.90
28608;DHT22;15802;45.654;13.804;2023-04-03T00:19:44;12.80;99.90
28608;DHT22;15802;45.654;13.804;2023-04-03T00:22:10;12.80;99.90
28608;DHT22;15802;45.654;13.804;2023-04-03T00:24:35;12.70;99.90
28608;DHT22;15802;45.654;13.804;2023-04-03T00:27:01;12.70;99.90
28608;DHT22;15802;45.654;13.804;2023-04-03T00:29:27;12.70;99.90
28608;DHT22;15802;45.654;13.804;2023-04-03T00:31:55;12.70;99.90
28608;DHT22;15802;45.654;13.804;2023-04-03T00:34:21;12.50;99.90
28608;DHT22;15802;45.654;13.804;2023-04-03T00:36:47;12.50;99.90
28608;DHT22;15802;45.654;13.804;2023-04-03T00:39:12;12.40;99.90
28608;DHT22;15802;45.654;13.804;2023-04-03T00:41:38;12.40;99.90
28608;DHT22;15802;45.654;13.804;2023-04-03T00:46:48;12.20;99.90
28608;DHT22;15802;45.654;13.804;2023-04-03T00:49:14;12.20;99.90
28608;DHT22;15802;45.654;13.804;2023-04-03T00:51:40;12.20;99.90
28608;DHT22;15802;45.654;13.804;2023-04-03T00:54:09;12.10;99.90
28608;DHT22;15802;45.654;13.804;2023-04-03T00:56:35;12.00;99.90
28608;DHT22;15802;45.654;13.804;2023-04-03T00:59:03;11.90;99.90
28608;DHT22;15802;45.654;13.804;2023-04-03T01:01:30;11.90;99.90
28608;DHT22;15802;45.654;13.804;2023-04-03T01:03:58;11.90;99.90
28608;DHT22;15802;45.654;13.804;2023-04-03T01:06:26;12.00;99.90
28608;DHT22;15802;45.654;13.804;2023-04-03T01:08:52;12.00;99.90
28608;DHT22;15802;45.654;13.804;2023-04-03T01:11:18;11.90;99.90
28608;DHT22;15802;45.654;13.804;2023-04-03T01:13:46;11.90;99.90
28608;DHT22;15802;45.654;13.804;2023-04-03T01:16:12;11.90;99.90
28608;DHT22;15802;45.654;13.804;2023-04-03T01:18:38;11.90;99.90
28608;DHT22;15802;45.654;13.804;2023-04-03T01:23:55;11.70;99.90
28608;DHT22;15802;45.654;13.804;2023-04-03T01:26:23;11.80;99.90
28608;DHT22;15802;45.654;13.804;2023-04-03T01:28:51;11.70;99.90
28608;DHT22;15802;45.654;13.804;2023-04-03T01:31:20;11.70;99.90
28608;DHT22;15802;45.654;13.804;2023-04-03T01:33:47;11.60;99.90
28608;DHT22;15802;45.654;13.804;2023-04-03T01:36:16;11.60;99.90
28608;DHT22;15802;45.654;13.804;2023-04-03T01:38:42;11.50;99.90
28608;DHT22;15802;45.654;13.804;2023-04-03T01:41:08;11.50;99.90
28608;DHT22;15802;45.654;13.804;2023-04-03T01:43:33;11.40;99.90
28608;DHT22;15802;45.654;13.804;2023-04-03T01:45:59;11.50;99.90
28608;DHT22;15802;45.654;13.804;2023-04-03T01:48:25;11.50;99.90
28608;DHT22;15802;45.654;13.804;2023-04-03T01:50:50;11.50;99.90
28608;DHT22;15802;45.654;13.804;2023-04-03T01:53:16;11.50;99.90
28608;DHT22;15802;45.654;13.804;2023-04-03T01:55:42;11.50;99.90
28608;DHT22;15802;45.654;13.804;2023-04-03T01:58:07;11.50;99.90
28608;DHT22;15802;45.654;13.804;2023-04-03T02:00:33;11.50;99.90
28608;DHT22;15802;45.654;13.804;2023-04-03T02:02:59;11.40;99.90
28608;DHT22;15802;45.654;13.804;2023-04-03T02:05:25;11.30;99.90
28608;DHT22;15802;45.654;13.804;2023-04-03T02:07:50;11.30;99.90
28608;DHT22;15802;45.654;13.804;2023-04-03T02:10:16;11.30;99.90
28608;DHT22;15802;45.654;13.804;2023-04-03T02:12:42;11.30;99.90
28608;DHT22;15802;45.654;13.804;2023-04-03T02:15:07;11.30;99.90
28608;DHT22;15802;45.654;13.804;2023-04-03T02:17:34;11.30;99.90
28608;DHT22;15802;45.654;13.804;2023-04-03T02:20:00;11.30;99.90
28608;DHT22;15802;45.654;13.804;2023-04-03T02:22:28;11.30;99.90
28608;DHT22;15802;45.654;13.804;2023-04-03T02:24:54;11.20;99.90
28608;DHT22;15802;45.654;13.804;2023-04-03T02:27:20;11.20;99.90
28608;DHT22;15802;45.654;13.804;2023-04-03T02:29:45;11.20;99.90
28608;DHT22;15802;45.654;13.804;2023-04-03T02:32:11;11.10;99.90
28608;DHT22;15802;45.654;13.804;2023-04-03T02:34:38;11.10;99.90
28608;DHT22;15802;45.654;13.804;2023-04-03T02:37:04;11.10;99.90
28608;DHT22;15802;45.654;13.804;2023-04-03T02:39:29;11.00;99.90
28608;DHT22;15802;45.654;13.804;2023-04-03T02:41:55;10.90;99.90
28608;DHT22;15802;45.654;13.804;2023-04-03T02:44:21;10.90;99.90
28608;DHT22;15802;45.654;13.804;2023-04-03T02:46:46;10.90;99.90
28608;DHT22;15802;45.654;13.804;2023-04-03T02:49:12;10.90;99.90
28608;DHT22;15802;45.654;13.804;2023-04-03T02:51:38;10.80;99.90
28608;DHT22;15802;45.654;13.804;2023-04-03T02:54:04;10.80;99.90
28608;DHT22;15802;45.654;13.804;2023-04-03T02:56:29;10.80;99.90
28608;DHT22;15802;45.654;13.804;2023-04-03T02:58:55;10.70;99.90
28608;DHT22;15802;45.654;13.804;2023-04-03T03:01:21;10.60;99.90
28608;DHT22;15802;45.654;13.804;2023-04-03T03:03:46;10.60;99.90
28608;DHT22;15802;45.654;13.804;2023-04-03T03:06:14;10.60;99.90
28608;DHT22;15802;45.654;13.804;2023-04-03T03:08:43;10.60;99.90
28608;DHT22;15802;45.654;13.804;2023-04-03T03:11:08;10.50;99.90
28608;DHT22;15802;45.654;13.804;2023-04-03T03:13:34;10.50;99.90
28608;DHT22;15802;45.654;13.804;2023-04-03T03:16:00;10.50;99.90
28608;DHT22;15802;45.654;13.804;2023-04-03T03:18:26;10.60;99.90
28608;DHT22;15802;45.654;13.804;2023-04-03T03:20:52;10.50;99.90
28608;DHT22;15802;45.654;13.804;2023-04-03T03:23:18;10.40;99.90
28608;DHT22;15802;45.654;13.804;2023-04-03T03:25:44;10.30;99.90
28608;DHT22;15802;45.654;13.804;2023-04-03T03:28:10;10.30;99.90
28608;DHT22;15802;45.654;13.804;2023-04-03T03:30:39;10.30;99.90
28608;DHT22;15802;45.654;13.804;2023-04-03T03:33:05;10.30;99.90
28608;DHT22;15802;45.654;13.804;2023-04-03T03:35:32;10.20;99.90
28608;DHT22;15802;45.654;13.804;2023-04-03T03:37:57;10.20;99.90
28608;DHT22;15802;45.654;13.804;2023-04-03T03:40:23;10.20;99.90
28608;DHT22;15802;45.654;13.804;2023-04-03T03:42:49;10.10;99.90
28608;DHT22;15802;45.654;13.804;2023-04-03T03:45:17;10.00;99.90
28608;DHT22;15802;45.654;13.804;2023-04-03T03:47:43;10.00;99.90
28608;DHT22;15802;45.654;13.804;2023-04-03T03:50:09;9.90;99.90
28608;DHT22;15802;45.654;13.804;2023-04-03T03:52:35;9.90;99.90
28608;DHT22;15802;45.654;13.804;2023-04-03T03:55:01;9.80;99.90
28608;DHT22;15802;45.654;13.804;2023-04-03T03:57:26;9.70;99.90
28608;DHT22;15802;45.654;13.804;2023-04-03T03:59:54;9.60;99.90
28608;DHT22;15802;45.654;13.804;2023-04-03T04:02:20;9.60;99.90
28608;DHT22;15802;45.654;13.804;2023-04-03T04:04:45;9.60;99.90
28608;DHT22;15802;45.654;13.804;2023-04-03T04:07:11;9.50;99.90
28608;DHT22;15802;45.654;13.804;2023-04-03T04:09:37;9.60;99.90
28608;DHT22;15802;45.654;13.804;2023-04-03T04:12:02;9.50;99.90
28608;DHT22;15802;45.654;13.804;2023-04-03T04:14:28;9.40;99.90
28608;DHT22;15802;45.654;13.804;2023-04-03T04:16:54;9.50;99.90
28608;DHT22;15802;45.654;13.804;2023-04-03T04:19:19;9.40;99.90
28608;DHT22;15802;45.654;13.804;2023-04-03T04:21:45;9.40;99.90
28608;DHT22;15802;45.654;13.804;2023-04-03T04:24:11;9.40;99.90
28608;DHT22;15802;45.654;13.804;2023-04-03T04:26:36;9.30;99.90
28608;DHT22;15802;45.654;13.804;2023-04-03T04:29:02;9.20;99.90
28608;DHT22;15802;45.654;13.804;2023-04-03T04:31:28;9.20;99.90
28608;DHT22;15802;45.654;13.804;2023-04-03T04:33:53;9.30;99.90
28608;DHT22;15802;45.654;13.804;2023-04-03T04:36:22;9.20;99.90
28608;DHT22;15802;45.654;13.804;2023-04-03T04:38:48;9.20;99.90
28608;DHT22;15802;45.654;13.804;2023-04-03T04:41:14;9.10;99.90
28608;DHT22;15802;45.654;13.804;2023-04-03T04:43:42;9.10;99.90
28608;DHT22;15802;45.654;13.804;2023-04-03T04:46:08;9.20;99.90
28608;DHT22;15802;45.654;13.804;2023-04-03T04:48:35;9.10;99.90
28608;DHT22;15802;45.654;13.804;2023-04-03T04:51:01;9.00;99.90
28608;DHT22;15802;45.654;13.804;2023-04-03T04:53:27;9.00;99.90
28608;DHT22;15802;45.654;13.804;2023-04-03T04:55:52;9.10;99.90
28608;DHT22;15802;45.654;13.804;2023-04-03T04:58:18;9.10;99.90
28608;DHT22;15802;45.654;13.804;2023-04-03T05:00:44;9.20;99.90
28608;DHT22;15802;45.654;13.804;2023-04-03T05:03:10;9.20;99.90
28608;DHT22;15802;45.654;13.804;2023-04-03T05:05:35;9.20;99.90
28608;DHT22;15802;45.654;13.804;2023-04-03T05:08:01;9.20;99.90
28608;DHT22;15802;45.654;13.804;2023-04-03T05:10:28;9.20;99.90
28608;DHT22;15802;45.654;13.804;2023-04-03T05:12:53;9.20;99.90
28608;DHT22;15802;45.654;13.804;2023-04-03T05:15:19;9.20;99.90
28608;DHT22;15802;45.654;13.804;2023-04-03T05:17:45;9.10;99.90
28608;DHT22;15802;45.654;13.804;2023-04-03T05:20:11;9.10;99.90
28608;DHT22;15802;45.654;13.804;2023-04-03T05:22:36;9.10;99.90
28608;DHT22;15802;45.654;13.804;2023-04-03T05:25:05;9.10;99.90
28608;DHT22;15802;45.654;13.804;2023-04-03T05:27:31;9.10;99.90
28608;DHT22;15802;45.654;13.804;2023-04-03T05:29:57;9.00;99.90
28608;DHT22;15802;45.654;13.804;2023-04-03T05:32:23;9.00;99.90
28608;DHT22;15802;45.654;13.804;2023-04-03T05:34:50;8.90;99.90
28608;DHT22;15802;45.654;13.804;2023-04-03T05:37:16;8.90;99.90
28608;DHT22;15802;45.654;13.804;2023-04-03T05:39:42;8.90;99.90
28608;DHT22;15802;45.654;13.804;2023-04-03T05:42:08;8.80;99.90
28608;DHT22;15802;45.654;13.804;2023-04-03T05:44:34;8.80;99.90
28608;DHT22;15802;45.654;13.804;2023-04-03T05:47:00;8.80;99.90
28608;DHT22;15802;45.654;13.804;2023-04-03T05:49:26;8.80;99.90
28608;DHT22;15802;45.654;13.804;2023-04-03T05:51:59;8.80;99.90
28608;DHT22;15802;45.654;13.804;2023-04-03T05:54:27;8.90;99.90
28608;DHT22;15802;45.654;13.804;2023-04-03T05:56:53;8.90;99.90
28608;DHT22;15802;45.654;13.804;2023-04-03T05:59:19;8.90;99.90
28608;DHT22;15802;45.654;13.804;2023-04-03T06:01:45;8.90;99.90
28608;DHT22;15802;45.654;13.804;2023-04-03T06:06:43;9.00;99.90
28608;DHT22;15802;45.654;13.804;2023-04-03T06:09:09;9.00;99.90
28608;DHT22;15802;45.654;13.804;2023-04-03T06:11:38;9.10;99.90
28608;DHT22;15802;45.654;13.804;2023-04-03T06:14:04;9.10;99.90
28608;DHT22;15802;45.654;13.804;2023-04-03T06:16:32;9.10;99.90
28608;DHT22;15802;45.654;13.804;2023-04-03T06:19:00;9.10;99.90
28608;DHT22;15802;45.654;13.804;2023-04-03T06:21:26;9.10;99.90
28608;DHT22;15802;45.654;13.804;2023-04-03T06:23:52;9.20;99.90
28608;DHT22;15802;45.654;13.804;2023-04-03T06:26:18;9.20;99.90
28608;DHT22;15802;45.654;13.804;2023-04-03T06:28:45;9.30;99.90
28608;DHT22;15802;45.654;13.804;2023-04-03T06:31:11;9.40;99.90
28608;DHT22;15802;45.654;13.804;2023-04-03T06:33:40;9.40;99.90
28608;DHT22;15802;45.654;13.804;2023-04-03T06:36:06;9.40;99.90
28608;DHT22;15802;45.654;13.804;2023-04-03T06:38:32;9.50;99.90
28608;DHT22;15802;45.654;13.804;2023-04-03T06:40:58;9.50;99.90
28608;DHT22;15802;45.654;13.804;2023-04-03T06:43:24;9.50;99.90
28608;DHT22;15802;45.654;13.804;2023-04-03T06:45:50;9.50;99.90
28608;DHT22;15802;45.654;13.804;2023-04-03T06:48:15;9.50;99.90
28608;DHT22;15802;45.654;13.804;2023-04-03T06:50:41;9.50;99.90
28608;DHT22;15802;45.654;13.804;2023-04-03T06:53:07;9.60;99.90
28608;DHT22;15802;45.654;13.804;2023-04-03T06:55:34;9.70;99.90
28608;DHT22;15802;45.654;13.804;2023-04-03T06:58:01;9.80;99.90
28608;DHT22;15802;45.654;13.804;2023-04-03T07:00:27;9.80;99.90
28608;DHT22;15802;45.654;13.804;2023-04-03T07:05:23;9.80;99.90
28608;DHT22;15802;45.654;13.804;2023-04-03T07:07:49;9.80;99.90
28608;DHT22;15802;45.654;13.804;2023-04-03T07:10:15;9.90;99.90
28608;DHT22;15802;45.654;13.804;2023-04-03T07:12:44;9.90;99.90
28608;DHT22;15802;45.654;13.804;2023-04-03T07:15:10;9.90;99.90
28608;DHT22;15802;45.654;13.804;2023-04-03T07:17:38;9.90;99.90
28608;DHT22;15802;45.654;13.804;2023-04-03T07:20:04;9.90;99.90
28608;DHT22;15802;45.654;13.804;2023-04-03T07:22:30;10.00;99.90
28608;DHT22;15802;45.654;13.804;2023-04-03T07:24:56;10.00;99.90
28608;DHT22;15802;45.654;13.804;2023-04-03T07:27:24;10.10;99.90
28608;DHT22;15802;45.654;13.804;2023-04-03T07:29:50;10.10;99.90
28608;DHT22;15802;45.654;13.804;2023-04-03T07:34:51;10.20;99.90
28608;DHT22;15802;45.654;13.804;2023-04-03T07:37:17;10.30;99.90
28608;DHT22;15802;45.654;13.804;2023-04-03T07:39:46;10.30;99.90
28608;DHT22;15802;45.654;13.804;2023-04-03T07:42:14;10.30;99.90
28608;DHT22;15802;45.654;13.804;2023-04-03T07:44:39;10.30;99.90
28608;DHT22;15802;45.654;13.804;2023-04-03T07:47:10;10.30;99.90
28608;DHT22;15802;45.654;13.804;2023-04-03T07:49:41;10.40;99.90
28608;DHT22;15802;45.654;13.804;2023-04-03T07:52:07;10.50;99.90
28608;DHT22;15802;45.654;13.804;2023-04-03T07:54:34;10.60;99.90
28608;DHT22;15802;45.654;13.804;2023-04-03T07:57:00;10.70;99.90
28608;DHT22;15802;45.654;13.804;2023-04-03T07:59:26;10.70;99.90
28608;DHT22;15802;45.654;13.804;2023-04-03T08:01:54;10.80;99.90
28608;DHT22;15802;45.654;13.804;2023-04-03T08:04:22;10.70;99.90
28608;DHT22;15802;45.654;13.804;2023-04-03T08:06:51;10.80;99.90
28608;DHT22;15802;45.654;13.804;2023-04-03T08:09:17;10.90;99.90
28608;DHT22;15802;45.654;13.804;2023-04-03T08:11:45;11.00;99.90
28608;DHT22;15802;45.654;13.804;2023-04-03T08:14:11;10.90;99.90
28608;DHT22;15802;45.654;13.804;2023-04-03T08:16:42;10.90;99.90
28608;DHT22;15802;45.654;13.804;2023-04-03T08:19:08;10.90;99.90
28608;DHT22;15802;45.654;13.804;2023-04-03T08:21:36;10.90;99.90
28608;DHT22;15802;45.654;13.804;2023-04-03T08:24:01;10.90;99.90
28608;DHT22;15802;45.654;13.804;2023-04-03T08:26:41;10.90;99.90
28608;DHT22;15802;45.654;13.804;2023-04-03T08:29:07;11.00;99.90
28608;DHT22;15802;45.654;13.804;2023-04-03T08:31:33;11.00;99.90
28608;DHT22;15802;45.654;13.804;2023-04-03T08:33:59;11.10;99.90
28608;DHT22;15802;45.654;13.804;2023-04-03T08:36:26;11.10;99.90
28608;DHT22;15802;45.654;13.804;2023-04-03T08:38:54;11.10;99.90
28608;DHT22;15802;45.654;13.804;2023-04-03T08:44:15;11.00;99.90
28608;DHT22;15802;45.654;13.804;2023-04-03T08:49:32;11.20;99.90
28608;DHT22;15802;45.654;13.804;2023-04-03T08:51:59;11.30;99.90
28608;DHT22;15802;45.654;13.804;2023-04-03T08:54:32;11.40;99.90
28608;DHT22;15802;45.654;13.804;2023-04-03T08:56:59;11.40;99.90
28608;DHT22;15802;45.654;13.804;2023-04-03T08:59:29;11.60;99.90
28608;DHT22;15802;45.654;13.804;2023-04-03T09:01:58;11.60;99.90
28608;DHT22;15802;45.654;13.804;2023-04-03T09:04:27;11.60;99.90
28608;DHT22;15802;45.654;13.804;2023-04-03T09:06:54;11.50;99.90
28608;DHT22;15802;45.654;13.804;2023-04-03T09:09:25;11.60;99.90
28608;DHT22;15802;45.654;13.804;2023-04-03T09:14:45;11.70;99.90
28608;DHT22;15802;45.654;13.804;2023-04-03T09:17:21;11.60;99.90
28608;DHT22;15802;45.654;13.804;2023-04-03T09:19:56;11.70;99.90
28608;DHT22;15802;45.654;13.804;2023-04-03T09:22:24;11.90;99.90
28608;DHT22;15802;45.654;13.804;2023-04-03T09:27:35;11.90;99.90
28608;DHT22;15802;45.654;13.804;2023-04-03T09:39:07;12.00;99.90
28608;DHT22;15802;45.654;13.804;2023-04-03T09:41:35;12.20;99.90
28608;DHT22;15802;45.654;13.804;2023-04-03T09:46:56;12.10;99.90
28608;DHT22;15802;45.654;13.804;2023-04-03T09:49:24;12.30;99.90
28608;DHT22;15802;45.654;13.804;2023-04-03T09:51:54;12.40;99.90
28608;DHT22;15802;45.654;13.804;2023-04-03T09:54:32;12.60;99.90
28608;DHT22;15802;45.654;13.804;2023-04-03T09:57:07;12.80;99.90
28608;DHT22;15802;45.654;13.804;2023-04-03T09:59:39;12.90;99.90
28608;DHT22;15802;45.654;13.804;2023-04-03T10:02:23;12.90;99.90
28608;DHT22;15802;45.654;13.804;2023-04-03T10:04:55;12.80;99.90
28608;DHT22;15802;45.654;13.804;2023-04-03T10:07:30;12.90;99.90
28608;DHT22;15802;45.654;13.804;2023-04-03T10:10:01;12.80;99.90
28608;DHT22;15802;45.654;13.804;2023-04-03T10:12:27;12.80;99.90
28608;DHT22;15802;45.654;13.804;2023-04-03T10:14:55;12.90;99.90
28608;DHT22;15802;45.654;13.804;2023-04-03T10:17:27;12.90;99.90
28608;DHT22;15802;45.654;13.804;2023-04-03T10:20:02;12.90;99.90
28608;DHT22;15802;45.654;13.804;2023-04-03T10:22:48;13.00;99.90
28608;DHT22;15802;45.654;13.804;2023-04-03T10:31:04;13.30;99.90
28608;DHT22;15802;45.654;13.804;2023-04-03T10:33:41;13.10;99.90
28608;DHT22;15802;45.654;13.804;2023-04-03T10:36:12;13.20;99.90
28608;DHT22;15802;45.654;13.804;2023-04-03T10:44:15;13.20;99.90
28608;DHT22;15802;45.654;13.804;2023-04-03T10:46:45;13.20;99.90
28608;DHT22;15802;45.654;13.804;2023-04-03T10:49:17;13.20;99.90
28608;DHT22;15802;45.654;13.804;2023-04-03T10:51:45;13.40;99.90
28608;DHT22;15802;45.654;13.804;2023-04-03T10:54:31;13.40;99.90
28608;DHT22;15802;45.654;13.804;2023-04-03T10:57:04;13.50;99.90
28608;DHT22;15802;45.654;13.804;2023-04-03T11:05:00;13.20;99.90
28608;DHT22;15802;45.654;13.804;2023-04-03T11:07:27;13.20;99.90
28608;DHT22;15802;45.654;13.804;2023-04-03T11:09:57;13.20;99.90
28608;DHT22;15802;45.654;13.804;2023-04-03T11:12:33;13.20;99.90
28608;DHT22;15802;45.654;13.804;2023-04-03T11:15:02;13.20;99.90
28608;DHT22;15802;45.654;13.804;2023-04-03T11:17:33;13.20;99.90
28608;DHT22;15802;45.654;13.804;2023-04-03T11:20:16;13.40;99.90
28608;DHT22;15802;45.654;13.804;2023-04-03T11:22:44;13.50;99.90
28608;DHT22;15802;45.654;13.804;2023-04-03T11:28:05;13.30;99.90
28608;DHT22;15802;45.654;13.804;2023-04-03T11:30:33;13.50;99.90
28608;DHT22;15802;45.654;13.804;2023-04-03T11:38:21;13.90;99.90
28608;DHT22;15802;45.654;13.804;2023-04-03T11:40:49;14.00;99.80
28608;DHT22;15802;45.654;13.804;2023-04-03T11:43:36;14.00;99.30
28608;DHT22;15802;45.654;13.804;2023-04-03T11:46:05;13.60;99.50
28608;DHT22;15802;45.654;13.804;2023-04-03T11:48:42;13.70;99.30
28608;DHT22;15802;45.654;13.804;2023-04-03T11:54:34;13.70;99.40
28608;DHT22;15802;45.654;13.804;2023-04-03T11:56:43;13.80;98.80
28608;DHT22;15802;45.654;13.804;2023-04-03T11:59:21;13.90;99.60
28608;DHT22;15802;45.654;13.804;2023-04-03T12:01:49;13.90;99.10
28608;DHT22;15802;45.654;13.804;2023-04-03T12:04:19;14.00;99.40
28608;DHT22;15802;45.654;13.804;2023-04-03T12:22:38;14.10;99.40
28608;DHT22;15802;45.654;13.804;2023-04-03T12:25:59;14.20;98.60
28608;DHT22;15802;45.654;13.804;2023-04-03T12:45:49;14.40;96.50
28608;DHT22;15802;45.654;13.804;2023-04-03T12:48:17;14.60;95.60
28608;DHT22;15802;45.654;13.804;2023-04-03T12:50:46;14.70;95.10
28608;DHT22;15802;45.654;13.804;2023-04-03T12:53:13;14.60;95.50
28608;DHT22;15802;45.654;13.804;2023-04-03T12:55:40;14.70;95.70
28608;DHT22;15802;45.654;13.804;2023-04-03T12:58:14;14.80;95.90
28608;DHT22;15802;45.654;13.804;2023-04-03T13:01:09;14.80;95.00
28608;DHT22;15802;45.654;13.804;2023-04-03T13:03:39;14.70;95.10
28608;DHT22;15802;45.654;13.804;2023-04-03T13:06:05;14.60;95.40
28608;DHT22;15802;45.654;13.804;2023-04-03T13:08:31;14.50;95.60
28608;DHT22;15802;45.654;13.804;2023-04-03T13:11:02;14.60;95.90
28608;DHT22;15802;45.654;13.804;2023-04-03T13:13:28;14.80;96.00
28608;DHT22;15802;45.654;13.804;2023-04-03T13:15:54;14.70;95.30
28608;DHT22;15802;45.654;13.804;2023-04-03T13:18:37;14.60;95.40
28608;DHT22;15802;45.654;13.804;2023-04-03T13:21:06;14.70;95.00
28608;DHT22;15802;45.654;13.804;2023-04-03T13:23:33;14.60;95.60
28608;DHT22;15802;45.654;13.804;2023-04-03T13:25:59;14.70;95.00
28608;DHT22;15802;45.654;13.804;2023-04-03T13:28:29;14.70;95.30
28608;DHT22;15802;45.654;13.804;2023-04-03T13:30:59;14.60;95.00
28608;DHT22;15802;45.654;13.804;2023-04-03T13:33:28;14.60;95.20
28608;DHT22;15802;45.654;13.804;2023-04-03T13:35:56;14.80;95.10
28608;DHT22;15802;45.654;13.804;2023-04-03T13:38:24;14.90;94.80
28608;DHT22;15802;45.654;13.804;2023-04-03T13:40:51;15.00;94.70
28608;DHT22;15802;45.654;13.804;2023-04-03T13:43:19;14.80;94.80
28608;DHT22;15802;45.654;13.804;2023-04-03T13:48:35;14.60;95.20
28608;DHT22;15802;45.654;13.804;2023-04-03T13:51:03;14.80;95.20
28608;DHT22;15802;45.654;13.804;2023-04-03T13:53:30;14.90;95.40
28608;DHT22;15802;45.654;13.804;2023-04-03T13:55:58;15.00;95.00
28608;DHT22;15802;45.654;13.804;2023-04-03T13:58:25;15.20;95.50
28608;DHT22;15802;45.654;13.804;2023-04-03T14:03:41;15.40;94.70
28608;DHT22;15802;45.654;13.804;2023-04-03T14:06:10;15.80;94.90
28608;DHT22;15802;45.654;13.804;2023-04-03T14:08:36;16.20;94.20
28608;DHT22;15802;45.654;13.804;2023-04-03T14:11:02;16.20;93.70
28608;DHT22;15802;45.654;13.804;2023-04-03T14:13:31;16.00;93.20
28608;DHT22;15802;45.654;13.804;2023-04-03T14:15:57;16.00;93.60
28608;DHT22;15802;45.654;13.804;2023-04-03T14:18:25;16.00;94.30
28608;DHT22;15802;45.654;13.804;2023-04-03T14:20:51;16.20;92.50
28608;DHT22;15802;45.654;13.804;2023-04-03T14:23:16;15.90;92.40
28608;DHT22;15802;45.654;13.804;2023-04-03T14:25:42;16.10;92.70
28608;DHT22;15802;45.654;13.804;2023-04-03T14:28:13;16.10;92.60
28608;DHT22;15802;45.654;13.804;2023-04-03T14:30:57;16.40;92.60
28608;DHT22;15802;45.654;13.804;2023-04-03T14:33:22;16.30;92.70
28608;DHT22;15802;45.654;13.804;2023-04-03T14:35:49;16.50;92.40
28608;DHT22;15802;45.654;13.804;2023-04-03T14:38:24;16.40;92.10
28608;DHT22;15802;45.654;13.804;2023-04-03T14:40:51;16.10;92.80
28608;DHT22;15802;45.654;13.804;2023-04-03T14:43:18;15.80;92.60
28608;DHT22;15802;45.654;13.804;2023-04-03T14:45:47;15.60;93.00
28608;DHT22;15802;45.654;13.804;2023-04-03T14:48:18;15.40;93.20
28608;DHT22;15802;45.654;13.804;2023-04-03T14:50:44;15.20;93.40
28608;DHT22;15802;45.654;13.804;2023-04-03T14:53:10;15.10;94.00
28608;DHT22;15802;45.654;13.804;2023-04-03T14:55:37;15.20;93.20
28608;DHT22;15802;45.654;13.804;2023-04-03T14:58:02;15.20;93.60
28608;DHT22;15802;45.654;13.804;2023-04-03T15:00:28;15.30;93.30
28608;DHT22;15802;45.654;13.804;2023-04-03T15:02:54;15.40;93.40
28608;DHT22;15802;45.654;13.804;2023-04-03T15:05:20;15.60;93.40
28608;DHT22;15802;45.654;13.804;2023-04-03T15:07:53;15.80;92.90
28608;DHT22;15802;45.654;13.804;2023-04-03T15:10:20;15.70;92.70
28608;DHT22;15802;45.654;13.804;2023-04-03T15:12:49;15.60;93.00
28608;DHT22;15802;45.654;13.804;2023-04-03T15:15:15;15.80;92.70
28608;DHT22;15802;45.654;13.804;2023-04-03T15:17:41;15.70;92.80
28608;DHT22;15802;45.654;13.804;2023-04-03T15:20:12;16.00;92.50
28608;DHT22;15802;45.654;13.804;2023-04-03T15:22:39;16.20;92.50
28608;DHT22;15802;45.654;13.804;2023-04-03T15:25:04;15.90;92.60
28608;DHT22;15802;45.654;13.804;2023-04-03T15:27:30;15.50;92.50
28608;DHT22;15802;45.654;13.804;2023-04-03T15:29:58;15.40;92.80
28608;DHT22;15802;45.654;13.804;2023-04-03T15:32:24;15.40;92.60
28608;DHT22;15802;45.654;13.804;2023-04-03T15:34:51;15.50;92.90
28608;DHT22;15802;45.654;13.804;2023-04-03T15:37:21;15.60;91.90
28608;DHT22;15802;45.654;13.804;2023-04-03T15:39:46;15.40;92.80
28608;DHT22;15802;45.654;13.804;2023-04-03T15:42:15;15.60;92.20
28608;DHT22;15802;45.654;13.804;2023-04-03T15:44:41;15.30;92.40
28608;DHT22;15802;45.654;13.804;2023-04-03T15:47:07;15.40;92.90
28608;DHT22;15802;45.654;13.804;2023-04-03T15:49:32;15.40;92.70
28608;DHT22;15802;45.654;13.804;2023-04-03T15:51:59;14.90;92.70
28608;DHT22;15802;45.654;13.804;2023-04-03T15:54:27;15.10;92.90
28608;DHT22;15802;45.654;13.804;2023-04-03T15:56:54;15.20;93.00
28608;DHT22;15802;45.654;13.804;2023-04-03T15:59:20;15.20;92.90
28608;DHT22;15802;45.654;13.804;2023-04-03T16:01:46;15.00;93.10
28608;DHT22;15802;45.654;13.804;2023-04-03T16:04:12;14.70;93.50
28608;DHT22;15802;45.654;13.804;2023-04-03T16:06:38;14.60;94.00
28608;DHT22;15802;45.654;13.804;2023-04-03T16:09:06;14.50;94.10
28608;DHT22;15802;45.654;13.804;2023-04-03T16:11:35;14.10;94.00
28608;DHT22;15802;45.654;13.804;2023-04-03T16:14:01;13.80;94.60
28608;DHT22;15802;45.654;13.804;2023-04-03T16:16:27;13.70;94.70
28608;DHT22;15802;45.654;13.804;2023-04-03T16:18:53;14.00;94.50
28608;DHT22;15802;45.654;13.804;2023-04-03T16:21:20;14.10;94.40
28608;DHT22;15802;45.654;13.804;2023-04-03T16:23:46;13.80;94.50
28608;DHT22;15802;45.654;13.804;2023-04-03T16:26:11;13.70;94.90
28608;DHT22;15802;45.654;13.804;2023-04-03T16:28:37;13.50;95.10
28608;DHT22;15802;45.654;13.804;2023-04-03T16:31:03;13.50;95.10
28608;DHT22;15802;45.654;13.804;2023-04-03T16:33:30;13.30;95.30
28608;DHT22;15802;45.654;13.804;2023-04-03T16:35:56;13.20;95.20
28608;DHT22;15802;45.654;13.804;2023-04-03T16:38:25;13.20;95.50
28608;DHT22;15802;45.654;13.804;2023-04-03T16:41:02;13.10;95.60
28608;DHT22;15802;45.654;13.804;2023-04-03T16:43:30;13.00;95.50
28608;DHT22;15802;45.654;13.804;2023-04-03T16:45:59;12.80;95.90
28608;DHT22;15802;45.654;13.804;2023-04-03T16:48:27;12.60;96.00
28608;DHT22;15802;45.654;13.804;2023-04-03T16:50:53;12.60;96.50
28608;DHT22;15802;45.654;13.804;2023-04-03T16:53:19;12.50;96.10
28608;DHT22;15802;45.654;13.804;2023-04-03T16:55:45;12.40;96.20
28608;DHT22;15802;45.654;13.804;2023-04-03T16:58:11;12.40;96.50
28608;DHT22;15802;45.654;13.804;2023-04-03T17:00:37;12.40;96.40
28608;DHT22;15802;45.654;13.804;2023-04-03T17:03:03;12.30;96.70
28608;DHT22;15802;45.654;13.804;2023-04-03T17:05:31;12.20;96.90